sensor_id;sensor_type;location;lat;lon;timestamp;P1;P2;P0
65383;PMS5003;51986;52.788;41.368;2024-02-21T00:01:25;17.25;16.00;13.00
65383;PMS5003;51986;52.788;41.368;2024-02-21T00:03:53;21.50;19.00;14.25
65383;PMS5003;51986;52.788;41.368;2024-02-21T00:06:20;23.00;21.00;16.00
65383;PMS5003;51986;52.788;41.368;2024-02-21T00:08:49;18.00;18.00;14.00
65383;PMS5003;51986;52.788;41.368;2024-02-21T00:11:16;16.00;16.00;13.00
65383;PMS5003;51986;52.788;41.368;2024-02-21T00:13:43;20.25;19.50;15.50
65383;PMS5003;51986;52.788;41.368;2024-02-21T00:16:10;17.00;16.25;14.00
65383;PMS5003;51986;52.788;41.368;2024-02-21T00:18:37;15.75;15.00;12.00
65383;PMS5003;51986;52.788;41.368;2024-02-21T00:21:04;15.25;14.00;12.00
65383;PMS5003;51986;52.788;41.368;2024-02-21T00:23:31;16.00;14.00;11.00
65383;PMS5003;51986;52.788;41.368;2024-02-21T00:25:58;19.50;19.00;14.00
65383;PMS5003;51986;52.788;41.368;2024-02-21T00:28:26;17.25;17.00;13.00
65383;PMS5003;51986;52.788;41.368;2024-02-21T00:30:53;14.00;14.00;12.00
65383;PMS5003;51986;52.788;41.368;2024-02-21T00:33:20;14.00;13.00;11.00
65383;PMS5003;51986;52.788;41.368;2024-02-21T00:35:47;16.00;13.50;10.00
65383;PMS5003;51986;52.788;41.368;2024-02-21T00:38:14;14.00;12.00;9.25
65383;PMS5003;51986;52.788;41.368;2024-02-21T00:40:41;17.00;17.00;12.00
65383;PMS5003;51986;52.788;41.368;2024-02-21T00:43:08;18.00;18.00;14.00
65383;PMS5003;51986;52.788;41.368;2024-02-21T00:45:35;16.00;16.00;14.00
65383;PMS5003;51986;52.788;41.368;2024-02-21T00:48:02;15.00;15.00;13.00
65383;PMS5003;51986;52.788;41.368;2024-02-21T00:50:30;14.50;13.00;11.00
65383;PMS5003;51986;52.788;41.368;2024-02-21T00:52:57;16.25;15.25;12.50
65383;PMS5003;51986;52.788;41.368;2024-02-21T00:55:24;16.00;15.25;13.00
65383;PMS5003;51986;52.788;41.368;2024-02-21T00:57:51;18.00;17.50;14.00
65383;PMS5003;51986;52.788;41.368;2024-02-21T01:00:18;18.00;17.00;13.00
65383;PMS5003;51986;52.788;41.368;2024-02-21T01:02:46;14.50;14.00;12.00
65383;PMS5003;51986;52.788;41.368;2024-02-21T01:05:14;19.25;19.00;14.25
65383;PMS5003;51986;52.788;41.368;2024-02-21T01:07:42;21.25;20.00;16.00
65383;PMS5003;51986;52.788;41.368;2024-02-21T01:10:12;20.00;19.00;15.00
65383;PMS5003;51986;52.788;41.368;2024-02-21T01:12:42;17.00;17.00;14.00
65383;PMS5003;51986;52.788;41.368;2024-02-21T01:15:09;19.75;19.25;15.00
65383;PMS5003;51986;52.788;41.368;2024-02-21T01:17:36;21.00;19.75;16.00
65383;PMS5003;51986;52.788;41.368;2024-02-21T01:20:04;23.00;21.00;16.00
65383;PMS5003;51986;52.788;41.368;2024-02-21T01:22:31;21.25;19.00;16.00
65383;PMS5003;51986;52.788;41.368;2024-02-21T01:24:58;21.00;19.75;15.75
65383;PMS5003;51986;52.788;41.368;2024-02-21T01:27:25;22.00;20.00;16.00
65383;PMS5003;51986;52.788;41.368;2024-02-21T01:29:53;19.00;17.00;14.00
65383;PMS5003;51986;52.788;41.368;2024-02-21T01:32:20;20.50;19.00;15.50
65383;PMS5003;51986;52.788;41.368;2024-02-21T01:34:47;23.00;20.00;16.00
65383;PMS5003;51986;52.788;41.368;2024-02-21T01:37:14;23.00;21.00;16.00
65383;PMS5003;51986;52.788;41.368;2024-02-21T01:39:41;18.00;18.00;14.00
65383;PMS5003;51986;52.788;41.368;2024-02-21T01:42:08;18.00;17.00;14.00
65383;PMS5003;51986;52.788;41.368;2024-02-21T01:44:35;21.25;20.25;16.00
65383;PMS5003;51986;52.788;41.368;2024-02-21T01:47:02;19.00;19.00;14.00
65383;PMS5003;51986;52.788;41.368;2024-02-21T01:49:29;23.00;19.00;15.00
65383;PMS5003;51986;52.788;41.368;2024-02-21T01:51:56;18.75;18.50;14.00
65383;PMS5003;51986;52.788;41.368;2024-02-21T01:54:23;23.50;20.50;15.50
65383;PMS5003;51986;52.788;41.368;2024-02-21T01:56:52;24.00;21.00;15.50
65383;PMS5003;51986;52.788;41.368;2024-02-21T01:59:19;23.25;21.00;16.00
65383;PMS5003;51986;52.788;41.368;2024-02-21T02:01:48;21.75;19.00;15.00
65383;PMS5003;51986;52.788;41.368;2024-02-21T02:04:18;23.50;20.50;15.25
65383;PMS5003;51986;52.788;41.368;2024-02-21T02:06:47;20.00;19.00;14.00
65383;PMS5003;51986;52.788;41.368;2024-02-21T02:09:14;17.00;17.00;13.00
65383;PMS5003;51986;52.788;41.368;2024-02-21T02:11:42;19.00;17.00;14.00
65383;PMS5003;51986;52.788;41.368;2024-02-21T02:14:09;21.00;19.00;14.00
65383;PMS5003;51986;52.788;41.368;2024-02-21T02:16:36;22.00;19.00;14.00
65383;PMS5003;51986;52.788;41.368;2024-02-21T02:19:03;18.50;17.00;12.75
65383;PMS5003;51986;52.788;41.368;2024-02-21T02:21:32;17.00;13.00;11.25
65383;PMS5003;51986;52.788;41.368;2024-02-21T02:32:16;13.00;13.00;10.75
65383;PMS5003;51986;52.788;41.368;2024-02-21T02:34:43;20.00;18.75;13.75
65383;PMS5003;51986;52.788;41.368;2024-02-21T02:37:10;21.00;20.00;14.00
65383;PMS5003;51986;52.788;41.368;2024-02-21T02:39:37;16.25;15.00;12.00
65383;PMS5003;51986;52.788;41.368;2024-02-21T02:42:04;16.25;16.25;12.00
65383;PMS5003;51986;52.788;41.368;2024-02-21T02:44:31;20.75;19.25;12.75
65383;PMS5003;51986;52.788;41.368;2024-02-21T02:46:58;21.00;18.75;13.50
65383;PMS5003;51986;52.788;41.368;2024-02-21T02:49:26;23.25;20.75;15.00
65383;PMS5003;51986;52.788;41.368;2024-02-21T02:51:53;25.25;21.75;16.00
65383;PMS5003;51986;52.788;41.368;2024-02-21T02:54:20;21.00;19.00;14.50
65383;PMS5003;51986;52.788;41.368;2024-02-21T02:56:47;20.00;17.00;14.00
65383;PMS5003;51986;52.788;41.368;2024-02-21T02:59:14;17.50;17.00;13.00
65383;PMS5003;51986;52.788;41.368;2024-02-21T03:01:41;15.00;15.00;12.00
65383;PMS5003;51986;52.788;41.368;2024-02-21T03:04:08;17.00;16.50;13.25
65383;PMS5003;51986;52.788;41.368;2024-02-21T03:06:35;19.25;18.25;14.00
65383;PMS5003;51986;52.788;41.368;2024-02-21T03:09:02;19.25;18.25;14.00
65383;PMS5003;51986;52.788;41.368;2024-02-21T03:11:29;23.50;20.00;14.50
65383;PMS5003;51986;52.788;41.368;2024-02-21T03:13:57;21.00;19.00;14.00
65383;PMS5003;51986;52.788;41.368;2024-02-21T03:16:24;15.00;15.00;12.00
65383;PMS5003;51986;52.788;41.368;2024-02-21T03:18:51;13.00;12.00;10.00
65383;PMS5003;51986;52.788;41.368;2024-02-21T03:21:18;12.25;12.00;8.00
65383;PMS5003;51986;52.788;41.368;2024-02-21T03:23:45;12.00;11.00;8.00
65383;PMS5003;51986;52.788;41.368;2024-02-21T03:26:12;13.50;12.25;8.75
65383;PMS5003;51986;52.788;41.368;2024-02-21T03:28:39;13.50;12.00;11.25
65383;PMS5003;51986;52.788;41.368;2024-02-21T03:31:06;12.00;11.25;8.00
65383;PMS5003;51986;52.788;41.368;2024-02-21T03:33:34;15.00;14.50;11.25
65383;PMS5003;51986;52.788;41.368;2024-02-21T03:36:01;14.00;14.00;12.00
65383;PMS5003;51986;52.788;41.368;2024-02-21T03:38:29;15.25;15.25;12.00
65383;PMS5003;51986;52.788;41.368;2024-02-21T03:40:56;15.25;15.25;13.00
65383;PMS5003;51986;52.788;41.368;2024-02-21T03:43:23;14.00;12.00;10.00
65383;PMS5003;51986;52.788;41.368;2024-02-21T03:45:50;17.00;15.25;11.50
65383;PMS5003;51986;52.788;41.368;2024-02-21T03:48:18;17.50;16.75;13.75
65383;PMS5003;51986;52.788;41.368;2024-02-21T03:50:45;16.00;15.00;12.00
65383;PMS5003;51986;52.788;41.368;2024-02-21T03:53:12;18.75;17.00;14.00
65383;PMS5003;51986;52.788;41.368;2024-02-21T03:55:39;15.00;14.00;11.00
65383;PMS5003;51986;52.788;41.368;2024-02-21T03:58:06;14.00;12.25;9.25
65383;PMS5003;51986;52.788;41.368;2024-02-21T04:00:33;18.00;16.25;12.25
65383;PMS5003;51986;52.788;41.368;2024-02-21T04:03:00;16.25;15.00;12.00
65383;PMS5003;51986;52.788;41.368;2024-02-21T04:05:27;21.00;19.00;14.00
65383;PMS5003;51986;52.788;41.368;2024-02-21T04:07:54;19.00;17.25;14.00
65383;PMS5003;51986;52.788;41.368;2024-02-21T04:10:22;18.00;17.00;14.00
65383;PMS5003;51986;52.788;41.368;2024-02-21T04:12:49;15.50;15.50;12.00
65383;PMS5003;51986;52.788;41.368;2024-02-21T04:15:19;19.00;19.00;14.00
65383;PMS5003;51986;52.788;41.368;2024-02-21T04:17:46;17.00;16.00;13.00
65383;PMS5003;51986;52.788;41.368;2024-02-21T04:20:14;15.50;15.00;12.00
65383;PMS5003;51986;52.788;41.368;2024-02-21T04:22:43;17.00;16.00;13.75
65383;PMS5003;51986;52.788;41.368;2024-02-21T04:25:10;14.00;13.00;11.00
65383;PMS5003;51986;52.788;41.368;2024-02-21T04:27:38;15.50;15.50;12.00
65383;PMS5003;51986;52.788;41.368;2024-02-21T04:30:06;16.00;16.00;14.00
65383;PMS5003;51986;52.788;41.368;2024-02-21T04:32:33;20.00;19.00;15.00
65383;PMS5003;51986;52.788;41.368;2024-02-21T04:35:00;17.00;16.50;14.00
65383;PMS5003;51986;52.788;41.368;2024-02-21T04:37:28;13.75;13.75;12.00
65383;PMS5003;51986;52.788;41.368;2024-02-21T04:39:55;12.00;12.00;11.00
65383;PMS5003;51986;52.788;41.368;2024-02-21T04:42:22;12.00;11.00;10.00
65383;PMS5003;51986;52.788;41.368;2024-02-21T04:44:49;16.75;16.00;13.25
65383;PMS5003;51986;52.788;41.368;2024-02-21T04:47:17;19.00;18.00;14.00
65383;PMS5003;51986;52.788;41.368;2024-02-21T04:49:44;22.25;19.75;15.50
65383;PMS5003;51986;52.788;41.368;2024-02-21T04:52:11;18.00;17.00;14.00
65383;PMS5003;51986;52.788;41.368;2024-02-21T04:54:39;13.75;13.50;12.00
65383;PMS5003;51986;52.788;41.368;2024-02-21T04:57:06;15.25;14.00;12.00
65383;PMS5003;51986;52.788;41.368;2024-02-21T04:59:33;17.00;16.00;12.00
65383;PMS5003;51986;52.788;41.368;2024-02-21T05:02:00;15.75;15.75;12.00
65383;PMS5003;51986;52.788;41.368;2024-02-21T05:04:28;18.00;17.00;13.00
65383;PMS5003;51986;52.788;41.368;2024-02-21T05:06:55;17.00;15.25;12.25
65383;PMS5003;51986;52.788;41.368;2024-02-21T05:09:22;22.75;20.00;16.25
65383;PMS5003;51986;52.788;41.368;2024-02-21T05:11:49;20.00;19.00;14.00
65383;PMS5003;51986;52.788;41.368;2024-02-21T05:14:16;22.67;20.33;16.67
65383;PMS5003;51986;52.788;41.368;2024-02-21T05:16:43;25.00;21.00;17.00
65383;PMS5003;51986;52.788;41.368;2024-02-21T05:19:11;21.00;20.00;17.00
65383;PMS5003;51986;52.788;41.368;2024-02-21T05:21:38;15.00;15.00;13.50
65383;PMS5003;51986;52.788;41.368;2024-02-21T05:24:06;17.00;16.50;14.00
65383;PMS5003;51986;52.788;41.368;2024-02-21T05:26:33;17.50;16.00;14.00
65383;PMS5003;51986;52.788;41.368;2024-02-21T05:29:00;14.00;14.00;12.00
65383;PMS5003;51986;52.788;41.368;2024-02-21T05:31:29;13.50;13.50;12.00
65383;PMS5003;51986;52.788;41.368;2024-02-21T05:34:29;18.75;18.00;14.75
65383;PMS5003;51986;52.788;41.368;2024-02-21T05:36:56;15.25;14.25;13.00
65383;PMS5003;51986;52.788;41.368;2024-02-21T05:39:24;17.25;17.00;14.25
65383;PMS5003;51986;52.788;41.368;2024-02-21T05:41:51;19.75;19.00;16.00
65383;PMS5003;51986;52.788;41.368;2024-02-21T05:44:18;17.00;16.00;14.00
65383;PMS5003;51986;52.788;41.368;2024-02-21T05:46:46;21.00;19.50;16.00
65383;PMS5003;51986;52.788;41.368;2024-02-21T05:49:14;23.25;21.00;16.75
65383;PMS5003;51986;52.788;41.368;2024-02-21T05:51:41;25.00;21.00;18.00
65383;PMS5003;51986;52.788;41.368;2024-02-21T05:54:08;19.00;18.75;14.50
65383;PMS5003;51986;52.788;41.368;2024-02-21T05:56:35;21.25;20.00;16.00
65383;PMS5003;51986;52.788;41.368;2024-02-21T05:59:02;25.00;22.00;17.00
65383;PMS5003;51986;52.788;41.368;2024-02-21T06:01:29;27.00;23.00;18.00
65383;PMS5003;51986;52.788;41.368;2024-02-21T06:03:56;20.00;19.00;15.00
65383;PMS5003;51986;52.788;41.368;2024-02-21T06:06:23;22.00;20.00;16.00
65383;PMS5003;51986;52.788;41.368;2024-02-21T06:08:51;24.25;20.75;17.25
65383;PMS5003;51986;52.788;41.368;2024-02-21T06:11:18;20.00;19.00;15.00
65383;PMS5003;51986;52.788;41.368;2024-02-21T06:13:45;22.50;20.50;16.50
65383;PMS5003;51986;52.788;41.368;2024-02-21T06:16:12;26.00;22.00;18.00
65383;PMS5003;51986;52.788;41.368;2024-02-21T06:18:39;21.00;20.00;16.00
65383;PMS5003;51986;52.788;41.368;2024-02-21T06:21:07;24.00;21.25;18.00
65383;PMS5003;51986;52.788;41.368;2024-02-21T06:23:34;20.00;19.00;15.00
65383;PMS5003;51986;52.788;41.368;2024-02-21T06:26:03;17.25;17.00;14.00
65383;PMS5003;51986;52.788;41.368;2024-02-21T06:28:30;20.25;18.75;15.00
65383;PMS5003;51986;52.788;41.368;2024-02-21T06:30:57;23.00;21.00;17.00
65383;PMS5003;51986;52.788;41.368;2024-02-21T06:33:24;25.00;22.00;18.00
65383;PMS5003;51986;52.788;41.368;2024-02-21T06:35:52;27.50;24.50;18.75
65383;PMS5003;51986;52.788;41.368;2024-02-21T06:38:19;30.00;26.00;20.00
65383;PMS5003;51986;52.788;41.368;2024-02-21T06:40:46;28.00;24.00;20.00
65383;PMS5003;51986;52.788;41.368;2024-02-21T06:43:13;23.00;21.00;17.00
65383;PMS5003;51986;52.788;41.368;2024-02-21T06:45:40;22.00;20.25;17.00
65383;PMS5003;51986;52.788;41.368;2024-02-21T06:48:07;25.00;22.50;18.25
65383;PMS5003;51986;52.788;41.368;2024-02-21T06:50:35;22.75;20.00;16.00
65383;PMS5003;51986;52.788;41.368;2024-02-21T06:53:02;23.75;21.50;17.00
65383;PMS5003;51986;52.788;41.368;2024-02-21T06:55:29;24.00;21.00;17.00
65383;PMS5003;51986;52.788;41.368;2024-02-21T06:57:56;22.00;20.00;15.50
65383;PMS5003;51986;52.788;41.368;2024-02-21T07:00:23;22.00;20.00;15.00
65383;PMS5003;51986;52.788;41.368;2024-02-21T07:02:51;27.50;23.50;19.00
65383;PMS5003;51986;52.788;41.368;2024-02-21T07:05:18;22.25;21.00;17.00
65383;PMS5003;51986;52.788;41.368;2024-02-21T07:07:49;22.00;20.00;16.00
65383;PMS5003;51986;52.788;41.368;2024-02-21T07:10:16;20.00;19.00;17.00
65383;PMS5003;51986;52.788;41.368;2024-02-21T07:12:43;22.00;20.00;16.00
65383;PMS5003;51986;52.788;41.368;2024-02-21T07:15:10;27.00;23.00;18.00
65383;PMS5003;51986;52.788;41.368;2024-02-21T07:17:37;32.75;27.00;21.00
65383;PMS5003;51986;52.788;41.368;2024-02-21T07:20:05;29.50;24.50;19.00
65383;PMS5003;51986;52.788;41.368;2024-02-21T07:22:32;29.00;25.00;20.00
65383;PMS5003;51986;52.788;41.368;2024-02-21T07:24:59;28.50;24.00;19.00
65383;PMS5003;51986;52.788;41.368;2024-02-21T07:27:31;28.50;23.00;18.00
65383;PMS5003;51986;52.788;41.368;2024-02-21T07:29:58;26.00;23.00;17.25
65383;PMS5003;51986;52.788;41.368;2024-02-21T07:32:26;29.25;25.00;20.00
65383;PMS5003;51986;52.788;41.368;2024-02-21T07:34:53;29.00;25.00;20.00
65383;PMS5003;51986;52.788;41.368;2024-02-21T07:37:20;31.75;27.00;21.00
65383;PMS5003;51986;52.788;41.368;2024-02-21T07:39:47;29.00;25.00;19.00
65383;PMS5003;51986;52.788;41.368;2024-02-21T07:42:14;30.50;25.50;20.00
65383;PMS5003;51986;52.788;41.368;2024-02-21T07:44:41;31.00;27.00;21.00
65383;PMS5003;51986;52.788;41.368;2024-02-21T07:47:08;31.00;27.00;21.00
65383;PMS5003;51986;52.788;41.368;2024-02-21T07:52:11;30.50;26.00;20.00
65383;PMS5003;51986;52.788;41.368;2024-02-21T07:54:38;31.25;26.00;21.00
65383;PMS5003;51986;52.788;41.368;2024-02-21T07:57:05;32.00;26.00;21.00
65383;PMS5003;51986;52.788;41.368;2024-02-21T07:59:33;30.00;26.00;20.00
65383;PMS5003;51986;52.788;41.368;2024-02-21T08:02:00;31.00;26.00;20.00
65383;PMS5003;51986;52.788;41.368;2024-02-21T08:04:27;30.00;25.00;20.00
65383;PMS5003;51986;52.788;41.368;2024-02-21T08:06:54;29.00;25.00;19.00
65383;PMS5003;51986;52.788;41.368;2024-02-21T08:09:22;29.50;25.50;19.00
65383;PMS5003;51986;52.788;41.368;2024-02-21T08:11:49;29.50;25.50;20.00
65383;PMS5003;51986;52.788;41.368;2024-02-21T08:14:16;28.00;25.00;19.00
65383;PMS5003;51986;52.788;41.368;2024-02-21T08:16:47;28.25;24.50;18.50
65383;PMS5003;51986;52.788;41.368;2024-02-21T08:19:14;30.00;25.50;19.50
65383;PMS5003;51986;52.788;41.368;2024-02-21T08:21:41;29.50;25.00;19.00
65383;PMS5003;51986;52.788;41.368;2024-02-21T08:24:08;35.00;28.75;21.00
65383;PMS5003;51986;52.788;41.368;2024-02-21T08:26:39;34.00;28.00;21.50
65383;PMS5003;51986;52.788;41.368;2024-02-21T08:29:09;31.75;25.00;20.00
65383;PMS5003;51986;52.788;41.368;2024-02-21T08:31:36;31.00;25.50;20.00
65383;PMS5003;51986;52.788;41.368;2024-02-21T08:34:03;31.00;26.00;20.00
65383;PMS5003;51986;52.788;41.368;2024-02-21T08:36:31;29.00;24.00;19.00
65383;PMS5003;51986;52.788;41.368;2024-02-21T08:39:00;26.00;23.00;18.00
65383;PMS5003;51986;52.788;41.368;2024-02-21T08:41:27;29.50;25.50;20.00
65383;PMS5003;51986;52.788;41.368;2024-02-21T08:44:17;31.00;26.00;21.00
65383;PMS5003;51986;52.788;41.368;2024-02-21T08:46:44;30.75;25.00;20.00
65383;PMS5003;51986;52.788;41.368;2024-02-21T08:49:11;29.00;24.25;20.00
65383;PMS5003;51986;52.788;41.368;2024-02-21T08:51:38;30.00;25.00;20.00
65383;PMS5003;51986;52.788;41.368;2024-02-21T08:54:05;32.00;25.50;20.25
65383;PMS5003;51986;52.788;41.368;2024-02-21T08:56:32;30.00;25.00;20.00
65383;PMS5003;51986;52.788;41.368;2024-02-21T08:58:59;31.50;26.00;20.00
65383;PMS5003;51986;52.788;41.368;2024-02-21T09:01:26;32.00;27.00;21.00
65383;PMS5003;51986;52.788;41.368;2024-02-21T09:03:54;29.75;25.00;20.00
65383;PMS5003;51986;52.788;41.368;2024-02-21T09:06:21;30.25;26.00;20.00
65383;PMS5003;51986;52.788;41.368;2024-02-21T09:08:48;30.75;26.00;20.00
65383;PMS5003;51986;52.788;41.368;2024-02-21T09:11:15;32.00;26.00;20.00
65383;PMS5003;51986;52.788;41.368;2024-02-21T09:13:43;28.00;24.00;20.00
65383;PMS5003;51986;52.788;41.368;2024-02-21T09:16:10;28.25;24.25;20.00
65383;PMS5003;51986;52.788;41.368;2024-02-21T09:18:37;30.50;26.00;20.00
65383;PMS5003;51986;52.788;41.368;2024-02-21T09:21:04;30.00;25.00;20.00
65383;PMS5003;51986;52.788;41.368;2024-02-21T09:23:31;31.75;26.00;20.00
65383;PMS5003;51986;52.788;41.368;2024-02-21T09:25:58;30.00;25.25;20.00
65383;PMS5003;51986;52.788;41.368;2024-02-21T09:28:25;30.00;26.00;20.00
65383;PMS5003;51986;52.788;41.368;2024-02-21T09:30:52;30.00;25.00;20.00
65383;PMS5003;51986;52.788;41.368;2024-02-21T09:33:20;31.50;26.50;21.00
65383;PMS5003;51986;52.788;41.368;2024-02-21T09:35:58;33.00;27.00;21.25
65383;PMS5003;51986;52.788;41.368;2024-02-21T09:38:25;33.00;27.00;22.00
65383;PMS5003;51986;52.788;41.368;2024-02-21T09:40:59;34.50;28.00;22.00
65383;PMS5003;51986;52.788;41.368;2024-02-21T09:43:51;32.00;27.00;20.00
65383;PMS5003;51986;52.788;41.368;2024-02-21T09:46:18;31.25;26.00;20.50
65383;PMS5003;51986;52.788;41.368;2024-02-21T09:51:15;32.50;26.25;22.00
65383;PMS5003;51986;52.788;41.368;2024-02-21T09:53:44;32.00;26.00;21.00
65383;PMS5003;51986;52.788;41.368;2024-02-21T09:56:28;30.00;26.00;20.00
65383;PMS5003;51986;52.788;41.368;2024-02-21T09:58:55;28.00;24.00;19.00
65383;PMS5003;51986;52.788;41.368;2024-02-21T10:01:23;27.00;24.00;19.00
65383;PMS5003;51986;52.788;41.368;2024-02-21T10:04:01;30.00;25.00;19.50
65383;PMS5003;51986;52.788;41.368;2024-02-21T10:06:28;28.25;24.75;20.00
65383;PMS5003;51986;52.788;41.368;2024-02-21T10:08:55;29.75;25.75;20.00
65383;PMS5003;51986;52.788;41.368;2024-02-21T10:11:23;28.00;24.00;20.00
65383;PMS5003;51986;52.788;41.368;2024-02-21T10:13:50;28.00;24.00;20.00
65383;PMS5003;51986;52.788;41.368;2024-02-21T10:16:18;28.00;24.00;19.00
65383;PMS5003;51986;52.788;41.368;2024-02-21T10:18:45;28.00;23.00;19.00
65383;PMS5003;51986;52.788;41.368;2024-02-21T10:21:12;27.00;23.75;18.00
65383;PMS5003;51986;52.788;41.368;2024-02-21T10:23:42;26.00;23.00;18.00
65383;PMS5003;51986;52.788;41.368;2024-02-21T10:26:09;30.00;26.00;20.00
65383;PMS5003;51986;52.788;41.368;2024-02-21T10:28:37;29.00;25.00;20.00
65383;PMS5003;51986;52.788;41.368;2024-02-21T10:31:05;32.00;26.75;20.00
65383;PMS5003;51986;52.788;41.368;2024-02-21T10:33:32;31.00;26.00;20.00
65383;PMS5003;51986;52.788;41.368;2024-02-21T10:36:06;26.75;23.00;19.00
65383;PMS5003;51986;52.788;41.368;2024-02-21T10:38:34;28.75;25.00;19.25
65383;PMS5003;51986;52.788;41.368;2024-02-21T10:41:05;28.00;24.00;19.00
65383;PMS5003;51986;52.788;41.368;2024-02-21T10:43:41;31.00;26.00;20.00
65383;PMS5003;51986;52.788;41.368;2024-02-21T10:46:13;29.00;25.00;19.00
65383;PMS5003;51986;52.788;41.368;2024-02-21T10:48:45;31.00;25.00;20.00
65383;PMS5003;51986;52.788;41.368;2024-02-21T10:56:32;30.00;25.00;20.00
65383;PMS5003;51986;52.788;41.368;2024-02-21T10:59:01;26.00;23.00;18.00
65383;PMS5003;51986;52.788;41.368;2024-02-21T11:01:30;28.50;24.25;20.00
65383;PMS5003;51986;52.788;41.368;2024-02-21T11:03:59;30.25;26.00;20.00
65383;PMS5003;51986;52.788;41.368;2024-02-21T11:06:30;29.00;25.00;20.00
65383;PMS5003;51986;52.788;41.368;2024-02-21T11:09:01;30.00;25.00;20.00
65383;PMS5003;51986;52.788;41.368;2024-02-21T11:11:33;33.75;26.50;21.00
65383;PMS5003;51986;52.788;41.368;2024-02-21T11:14:10;31.00;26.00;20.00
65383;PMS5003;51986;52.788;41.368;2024-02-21T11:16:44;30.50;26.00;20.00
65383;PMS5003;51986;52.788;41.368;2024-02-21T11:22:15;31.00;26.00;20.00
65383;PMS5003;51986;52.788;41.368;2024-02-21T11:24:44;33.25;27.00;21.00
65383;PMS5003;51986;52.788;41.368;2024-02-21T11:27:14;28.75;23.75;19.00
65383;PMS5003;51986;52.788;41.368;2024-02-21T11:30:03;30.00;24.25;20.00
65383;PMS5003;51986;52.788;41.368;2024-02-21T11:32:31;28.25;25.00;20.00
65383;PMS5003;51986;52.788;41.368;2024-02-21T11:34:59;31.00;26.25;20.50
65383;PMS5003;51986;52.788;41.368;2024-02-21T11:37:35;30.75;26.00;20.00
65383;PMS5003;51986;52.788;41.368;2024-02-21T11:40:03;25.00;21.75;18.00
65383;PMS5003;51986;52.788;41.368;2024-02-21T11:42:30;28.00;24.00;20.00
65383;PMS5003;51986;52.788;41.368;2024-02-21T11:44:59;27.00;24.00;19.00
65383;PMS5003;51986;52.788;41.368;2024-02-21T11:47:28;26.00;23.00;18.00
65383;PMS5003;51986;52.788;41.368;2024-02-21T11:49:56;27.00;23.50;18.75
65383;PMS5003;51986;52.788;41.368;2024-02-21T11:52:24;27.75;23.00;19.00
65383;PMS5003;51986;52.788;41.368;2024-02-21T11:54:53;26.00;23.00;19.00
65383;PMS5003;51986;52.788;41.368;2024-02-21T11:57:21;29.00;24.00;19.00
65383;PMS5003;51986;52.788;41.368;2024-02-21T11:59:48;29.50;23.50;19.50
65383;PMS5003;51986;52.788;41.368;2024-02-21T12:02:20;25.75;23.00;18.00
65383;PMS5003;51986;52.788;41.368;2024-02-21T12:04:47;24.25;21.00;17.00
65383;PMS5003;51986;52.788;41.368;2024-02-21T12:07:15;27.50;23.00;18.50
65383;PMS5003;51986;52.788;41.368;2024-02-21T12:09:42;30.00;25.00;19.75
65383;PMS5003;51986;52.788;41.368;2024-02-21T12:12:09;31.00;26.00;20.00
65383;PMS5003;51986;52.788;41.368;2024-02-21T12:14:36;31.00;26.00;20.00
65383;PMS5003;51986;52.788;41.368;2024-02-21T12:17:03;26.50;23.00;18.00
65383;PMS5003;51986;52.788;41.368;2024-02-21T12:19:31;26.00;23.00;18.00
65383;PMS5003;51986;52.788;41.368;2024-02-21T12:21:59;27.75;24.25;19.00
65383;PMS5003;51986;52.788;41.368;2024-02-21T12:24:28;24.00;21.00;17.00
65383;PMS5003;51986;52.788;41.368;2024-02-21T12:26:56;27.00;23.00;18.75
65383;PMS5003;51986;52.788;41.368;2024-02-21T12:29:24;22.25;21.00;17.00
65383;PMS5003;51986;52.788;41.368;2024-02-21T12:31:51;26.25;22.50;18.00
65383;PMS5003;51986;52.788;41.368;2024-02-21T12:34:19;27.50;23.75;19.50
65383;PMS5003;51986;52.788;41.368;2024-02-21T12:37:01;28.75;24.00;19.50
65383;PMS5003;51986;52.788;41.368;2024-02-21T12:39:28;30.00;25.00;20.00
65383;PMS5003;51986;52.788;41.368;2024-02-21T12:41:55;26.00;23.00;18.00
65383;PMS5003;51986;52.788;41.368;2024-02-21T12:44:22;26.00;22.00;18.00
65383;PMS5003;51986;52.788;41.368;2024-02-21T12:46:50;29.00;24.50;19.00
65383;PMS5003;51986;52.788;41.368;2024-02-21T12:49:17;23.75;21.25;17.00
65383;PMS5003;51986;52.788;41.368;2024-02-21T12:51:45;20.00;19.00;16.00
65383;PMS5003;51986;52.788;41.368;2024-02-21T12:54:12;21.00;21.00;16.00
65383;PMS5003;51986;52.788;41.368;2024-02-21T12:56:39;21.00;19.00;15.00
65383;PMS5003;51986;52.788;41.368;2024-02-21T12:59:06;27.75;24.50;19.00
65383;PMS5003;51986;52.788;41.368;2024-02-21T13:01:34;27.00;23.00;18.00
65383;PMS5003;51986;52.788;41.368;2024-02-21T13:04:01;23.00;21.00;17.00
65383;PMS5003;51986;52.788;41.368;2024-02-21T13:06:29;28.50;24.75;19.00
65383;PMS5003;51986;52.788;41.368;2024-02-21T13:08:56;31.00;25.00;20.00
65383;PMS5003;51986;52.788;41.368;2024-02-21T13:11:23;27.00;23.00;18.00
65383;PMS5003;51986;52.788;41.368;2024-02-21T13:13:50;29.50;25.00;19.00
65383;PMS5003;51986;52.788;41.368;2024-02-21T13:16:17;25.00;21.00;17.00
65383;PMS5003;51986;52.788;41.368;2024-02-21T13:18:45;27.50;23.00;18.00
65383;PMS5003;51986;52.788;41.368;2024-02-21T13:21:12;24.00;21.00;17.00
65383;PMS5003;51986;52.788;41.368;2024-02-21T13:23:39;26.50;23.50;18.50
65383;PMS5003;51986;52.788;41.368;2024-02-21T13:26:07;29.00;25.00;19.00
65383;PMS5003;51986;52.788;41.368;2024-02-21T13:28:34;31.00;25.00;20.00
65383;PMS5003;51986;52.788;41.368;2024-02-21T13:31:01;25.25;22.00;17.00
65383;PMS5003;51986;52.788;41.368;2024-02-21T13:33:28;27.00;23.00;18.00
65383;PMS5003;51986;52.788;41.368;2024-02-21T13:35:55;23.00;21.00;17.00
65383;PMS5003;51986;52.788;41.368;2024-02-21T13:38:22;28.00;23.00;18.25
65383;PMS5003;51986;52.788;41.368;2024-02-21T13:40:49;28.00;23.00;18.00
65383;PMS5003;51986;52.788;41.368;2024-02-21T13:43:16;28.00;23.00;18.00
65383;PMS5003;51986;52.788;41.368;2024-02-21T13:45:45;29.50;24.50;19.00
65383;PMS5003;51986;52.788;41.368;2024-02-21T13:48:26;29.00;24.00;19.00
65383;PMS5003;51986;52.788;41.368;2024-02-21T13:50:53;22.00;20.00;17.00
65383;PMS5003;51986;52.788;41.368;2024-02-21T13:53:20;16.00;16.00;14.00
65383;PMS5003;51986;52.788;41.368;2024-02-21T13:55:47;23.00;20.00;16.50
65383;PMS5003;51986;52.788;41.368;2024-02-21T13:58:15;24.00;20.00;16.00
65383;PMS5003;51986;52.788;41.368;2024-02-21T14:00:42;26.00;22.00;17.00